sensor_id;sensor_type;location;lat;lon;timestamp;pressure;altitude;pressure_sealevel;temperature;humidity
19114;BME280;9689;51.052;13.772;2022-09-12T00:04:26;100351.47;;;13.71;100.00
19114;BME280;9689;51.052;13.772;2022-09-12T00:09:28;100349.00;;;13.66;100.00
19114;BME280;9689;51.052;13.772;2022-09-12T00:14:29;100344.72;;;13.65;100.00
19114;BME280;9689;51.052;13.772;2022-09-12T00:19:29;100346.34;;;13.69;100.00
19114;BME280;9689;51.052;13.772;2022-09-12T00:24:31;100342.72;;;13.77;100.00
19114;BME280;9689;51.052;13.772;2022-09-12T00:29:32;100343.50;;;13.80;100.00
19114;BME280;9689;51.052;13.772;2022-09-12T00:34:34;100346.78;;;13.87;100.00
19114;BME280;9689;51.052;13.772;2022-09-12T00:39:36;100352.69;;;13.91;100.00
19114;BME280;9689;51.052;13.772;2022-09-12T00:44:43;100343.38;;;13.85;100.00
19114;BME280;9689;51.052;13.772;2022-09-12T00:49:48;100336.63;;;13.81;100.00
19114;BME280;9689;51.052;13.772;2022-09-12T00:54:54;100336.91;;;13.68;100.00
19114;BME280;9689;51.052;13.772;2022-09-12T00:59:58;100335.28;;;13.64;100.00
19114;BME280;9689;51.052;13.772;2022-09-12T01:05:01;100331.00;;;13.63;100.00
19114;BME280;9689;51.052;13.772;2022-09-12T01:10:03;100331.28;;;13.51;100.00
19114;BME280;9689;51.052;13.772;2022-09-12T01:15:05;100326.22;;;13.48;100.00
19114;BME280;9689;51.052;13.772;2022-09-12T01:20:24;100328.16;;;13.36;100.00
19114;BME280;9689;51.052;13.772;2022-09-12T01:25:30;100322.06;;;13.40;100.00
19114;BME280;9689;51.052;13.772;2022-09-12T01:30:44;100325.75;;;13.28;100.00
19114;BME280;9689;51.052;13.772;2022-09-12T01:35:57;100328.25;;;13.31;100.00
19114;BME280;9689;51.052;13.772;2022-09-12T01:41:08;100326.50;;;13.32;100.00
19114;BME280;9689;51.052;13.772;2022-09-12T01:46:15;100321.22;;;13.38;100.00
19114;BME280;9689;51.052;13.772;2022-09-12T01:51:21;100316.97;;;13.36;100.00
19114;BME280;9689;51.052;13.772;2022-09-12T01:56:26;100316.91;;;13.40;100.00
19114;BME280;9689;51.052;13.772;2022-09-12T02:01:31;100309.97;;;13.42;100.00
19114;BME280;9689;51.052;13.772;2022-09-12T02:06:35;100312.56;;;13.41;100.00
19114;BME280;9689;51.052;13.772;2022-09-12T02:11:41;100311.69;;;13.42;100.00
19114;BME280;9689;51.052;13.772;2022-09-12T02:16:47;100309.22;;;13.37;100.00
19114;BME280;9689;51.052;13.772;2022-09-12T02:21:52;100302.16;;;13.45;100.00
19114;BME280;9689;51.052;13.772;2022-09-12T02:26:55;100294.38;;;13.49;100.00
19114;BME280;9689;51.052;13.772;2022-09-12T02:32:00;100304.75;;;13.45;100.00
19114;BME280;9689;51.052;13.772;2022-09-12T02:37:09;100296.41;;;13.34;100.00
19114;BME280;9689;51.052;13.772;2022-09-12T02:42:12;100298.22;;;13.29;100.00
19114;BME280;9689;51.052;13.772;2022-09-12T02:47:18;100289.56;;;13.33;100.00
19114;BME280;9689;51.052;13.772;2022-09-12T02:52:21;100290.59;;;13.24;100.00
19114;BME280;9689;51.052;13.772;2022-09-12T02:57:22;100294.00;;;13.26;100.00
19114;BME280;9689;51.052;13.772;2022-09-12T03:02:29;100294.91;;;13.24;100.00
19114;BME280;9689;51.052;13.772;2022-09-12T03:07:45;100298.41;;;13.21;100.00
19114;BME280;9689;51.052;13.772;2022-09-12T03:12:56;100298.22;;;13.29;100.00
19114;BME280;9689;51.052;13.772;2022-09-12T03:18:17;100296.53;;;13.28;100.00
19114;BME280;9689;51.052;13.772;2022-09-12T03:23:24;100299.16;;;13.25;100.00
19114;BME280;9689;51.052;13.772;2022-09-12T03:28:29;100300.00;;;13.27;100.00
19114;BME280;9689;51.052;13.772;2022-09-12T03:33:31;100304.06;;;13.36;100.00
19114;BME280;9689;51.052;13.772;2022-09-12T03:38:32;100301.41;;;13.40;100.00
19114;BME280;9689;51.052;13.772;2022-09-12T03:43:33;100301.44;;;13.39;100.00
19114;BME280;9689;51.052;13.772;2022-09-12T03:48:35;100293.94;;;13.29;100.00
19114;BME280;9689;51.052;13.772;2022-09-12T03:53:36;100299.03;;;13.31;100.00
19114;BME280;9689;51.052;13.772;2022-09-12T03:58:37;100305.94;;;13.30;100.00
19114;BME280;9689;51.052;13.772;2022-09-12T04:03:39;100309.22;;;13.37;100.00
19114;BME280;9689;51.052;13.772;2022-09-12T04:08:41;100303.31;;;13.32;100.00
19114;BME280;9689;51.052;13.772;2022-09-12T04:13:43;100303.25;;;13.35;100.00
19114;BME280;9689;51.052;13.772;2022-09-12T04:18:46;100307.63;;;13.31;100.00
19114;BME280;9689;51.052;13.772;2022-09-12T04:23:47;100310.19;;;13.33;100.00
19114;BME280;9689;51.052;13.772;2022-09-12T04:28:52;100304.06;;;13.36;100.00
19114;BME280;9689;51.052;13.772;2022-09-12T04:33:55;100309.34;;;13.31;100.00
19114;BME280;9689;51.052;13.772;2022-09-12T04:38:56;100311.00;;;13.35;100.00
19114;BME280;9689;51.052;13.772;2022-09-12T04:44:00;100304.97;;;13.35;100.00
19114;BME280;9689;51.052;13.772;2022-09-12T04:49:03;100310.25;;;13.30;100.00
19114;BME280;9689;51.052;13.772;2022-09-12T04:54:06;100311.94;;;13.31;100.00
19114;BME280;9689;51.052;13.772;2022-09-12T04:59:08;100316.97;;;13.36;100.00
19114;BME280;9689;51.052;13.772;2022-09-12T05:04:12;100322.06;;;13.40;100.00
19114;BME280;9689;51.052;13.772;2022-09-12T05:09:13;100319.47;;;13.40;100.00
19114;BME280;9689;51.052;13.772;2022-09-12T05:14:14;100322.78;;;13.47;100.00
19114;BME280;9689;51.052;13.772;2022-09-12T05:19:17;100322.41;;;13.63;100.00
19114;BME280;9689;51.052;13.772;2022-09-12T05:24:17;100335.13;;;13.70;100.00
19114;BME280;9689;51.052;13.772;2022-09-12T05:29:18;100336.91;;;13.68;100.00
19114;BME280;9689;51.052;13.772;2022-09-12T05:34:20;100338.38;;;13.79;99.93
19114;BME280;9689;51.052;13.772;2022-09-12T05:39:21;100331.47;;;13.81;100.00
19114;BME280;9689;51.052;13.772;2022-09-12T05:44:23;100343.47;;;13.82;100.00
19114;BME280;9689;51.052;13.772;2022-09-12T05:49:25;100350.34;;;13.83;100.00
19114;BME280;9689;51.052;13.772;2022-09-12T05:54:26;100355.06;;;14.00;99.68
19114;BME280;9689;51.052;13.772;2022-09-12T05:59:30;100361.66;;;14.12;98.74
19114;BME280;9689;51.052;13.772;2022-09-12T06:04:32;100357.34;;;14.12;98.07
19114;BME280;9689;51.052;13.772;2022-09-12T06:09:33;100355.38;;;14.22;98.04
19114;BME280;9689;51.052;13.772;2022-09-12T06:14:33;100355.59;;;14.46;97.89
19114;BME280;9689;51.052;13.772;2022-09-12T06:19:35;100355.16;;;14.63;96.49
19114;BME280;9689;51.052;13.772;2022-09-12T06:24:36;100361.06;;;14.67;95.97
19114;BME280;9689;51.052;13.772;2022-09-12T06:29:37;100365.16;;;14.77;94.38
19114;BME280;9689;51.052;13.772;2022-09-12T06:34:39;100361.34;;;14.89;92.65
19114;BME280;9689;51.052;13.772;2022-09-12T06:39:40;100366.25;;;14.99;91.71
19114;BME280;9689;51.052;13.772;2022-09-12T06:44:40;100363.22;;;14.84;91.48
19114;BME280;9689;51.052;13.772;2022-09-12T06:49:42;100365.28;;;15.03;90.30
19114;BME280;9689;51.052;13.772;2022-09-12T06:54:43;100368.31;;;15.17;89.60
19114;BME280;9689;51.052;13.772;2022-09-12T06:59:44;100369.34;;;15.40;88.07
19114;BME280;9689;51.052;13.772;2022-09-12T07:04:46;100374.28;;;15.48;88.10
19114;BME280;9689;51.052;13.772;2022-09-12T07:09:48;100375.97;;;15.49;87.43
19114;BME280;9689;51.052;13.772;2022-09-12T07:14:48;100382.88;;;15.48;86.55
19114;BME280;9689;51.052;13.772;2022-09-12T07:19:50;100387.28;;;15.46;86.63
19114;BME280;9689;51.052;13.772;2022-09-12T07:24:51;100391.34;;;15.25;87.42
19114;BME280;9689;51.052;13.772;2022-09-12T07:29:52;100390.34;;;15.31;85.84
19114;BME280;9689;51.052;13.772;2022-09-12T07:34:54;100396.31;;;15.33;86.45
19114;BME280;9689;51.052;13.772;2022-09-12T07:39:55;100395.53;;;15.29;85.45
19114;BME280;9689;51.052;13.772;2022-09-12T07:44:56;100385.63;;;15.44;85.34
19114;BME280;9689;51.052;13.772;2022-09-12T07:49:58;100393.22;;;15.77;84.70
19114;BME280;9689;51.052;13.772;2022-09-12T07:54:58;100392.72;;;15.94;83.93
19114;BME280;9689;51.052;13.772;2022-09-12T07:59:59;100392.34;;;16.32;82.49
19114;BME280;9689;51.052;13.772;2022-09-12T08:05:01;100397.34;;;16.37;80.63
19114;BME280;9689;51.052;13.772;2022-09-12T08:10:02;100395.75;;;16.33;79.42
19114;BME280;9689;51.052;13.772;2022-09-12T08:15:03;100401.06;;;16.29;80.57
19114;BME280;9689;51.052;13.772;2022-09-12T08:20:06;100406.81;;;16.63;78.34
19114;BME280;9689;51.052;13.772;2022-09-12T08:25:08;100398.88;;;16.42;79.15
19114;BME280;9689;51.052;13.772;2022-09-12T08:30:09;100409.19;;;16.69;79.00
19114;BME280;9689;51.052;13.772;2022-09-12T08:35:12;100413.59;;;16.67;76.90
19114;BME280;9689;51.052;13.772;2022-09-12T08:40:14;100400.16;;;16.81;76.08
19114;BME280;9689;51.052;13.772;2022-09-12T08:45:21;100396.94;;;16.49;77.77
19114;BME280;9689;51.052;13.772;2022-09-12T08:50:23;100398.88;;;16.42;76.92
19114;BME280;9689;51.052;13.772;2022-09-12T08:55:29;100392.19;;;16.86;76.23
19114;BME280;9689;51.052;13.772;2022-09-12T09:00:38;100397.53;;;17.07;75.02
19114;BME280;9689;51.052;13.772;2022-09-12T09:05:46;100394.53;;;16.68;75.70
19114;BME280;9689;51.052;13.772;2022-09-12T09:10:52;100386.53;;;16.75;73.28
19114;BME280;9689;51.052;13.772;2022-09-12T09:16:03;100383.88;;;17.02;72.85
19114;BME280;9689;51.052;13.772;2022-09-12T09:21:19;100392.34;;;17.07;73.61
19114;BME280;9689;51.052;13.772;2022-09-12T09:26:25;100389.16;;;17.22;70.94
19114;BME280;9689;51.052;13.772;2022-09-12T09:31:31;100389.47;;;17.37;71.50
19114;BME280;9689;51.052;13.772;2022-09-12T09:36:41;100371.66;;;16.80;73.09
19114;BME280;9689;51.052;13.772;2022-09-12T09:41:49;100381.34;;;17.67;69.48
19114;BME280;9689;51.052;13.772;2022-09-12T09:46:54;100377.16;;;18.07;68.53
19114;BME280;9689;51.052;13.772;2022-09-12T09:51:58;100377.81;;;18.13;68.34
19114;BME280;9689;51.052;13.772;2022-09-12T09:56:59;100373.75;;;18.68;65.37
19114;BME280;9689;51.052;13.772;2022-09-12T10:02:02;100373.19;;;18.61;65.46
19114;BME280;9689;51.052;13.772;2022-09-12T10:07:04;100357.91;;;19.12;63.57
19114;BME280;9689;51.052;13.772;2022-09-12T10:12:19;100367.81;;;18.45;63.58
19114;BME280;9689;51.052;13.772;2022-09-12T10:17:23;100360.47;;;18.74;62.59
19114;BME280;9689;51.052;13.772;2022-09-12T10:22:31;100362.47;;;18.48;63.25
19114;BME280;9689;51.052;13.772;2022-09-12T10:27:32;100363.53;;;18.23;63.42
19114;BME280;9689;51.052;13.772;2022-09-12T10:32:39;100358.91;;;18.70;62.69
19114;BME280;9689;51.052;13.772;2022-09-12T10:37:50;100360.25;;;18.98;61.43
19114;BME280;9689;51.052;13.772;2022-09-12T10:42:53;100357.50;;;19.01;61.43
19114;BME280;9689;51.052;13.772;2022-09-12T10:47:56;100348.78;;;19.58;60.96
19114;BME280;9689;51.052;13.772;2022-09-12T10:53:17;100338.66;;;19.52;59.68
19114;BME280;9689;51.052;13.772;2022-09-12T10:58:40;100328.28;;;20.05;58.20
19114;BME280;9689;51.052;13.772;2022-09-12T11:03:59;100331.38;;;19.95;57.37
19114;BME280;9689;51.052;13.772;2022-09-12T11:09:11;100314.66;;;19.27;58.11
19114;BME280;9689;51.052;13.772;2022-09-12T11:14:23;100307.88;;;19.42;55.38
19114;BME280;9689;51.052;13.772;2022-09-12T11:25:11;100314.72;;;20.16;53.34
19114;BME280;9689;51.052;13.772;2022-09-12T11:30:14;100311.50;;;19.58;53.25
19114;BME280;9689;51.052;13.772;2022-09-12T11:35:18;100305.44;;;20.44;52.76
19114;BME280;9689;51.052;13.772;2022-09-12T11:40:29;100312.88;;;20.68;48.45
19114;BME280;9689;51.052;13.772;2022-09-12T11:45:34;100310.94;;;20.71;46.51
19114;BME280;9689;51.052;13.772;2022-09-12T11:50:36;100310.34;;;20.66;50.02
19114;BME280;9689;51.052;13.772;2022-09-12T11:55:46;100307.84;;;20.31;53.10
19114;BME280;9689;51.052;13.772;2022-09-12T12:00:53;100311.56;;;19.74;54.70
19114;BME280;9689;51.052;13.772;2022-09-12T12:05:58;100312.31;;;19.58;55.64
19114;BME280;9689;51.052;13.772;2022-09-12T12:11:05;100311.81;;;19.87;54.53
19114;BME280;9689;51.052;13.772;2022-09-12T12:16:12;100304.66;;;19.73;54.71
19114;BME280;9689;51.052;13.772;2022-09-12T12:21:36;100306.19;;;19.59;54.96
19114;BME280;9689;51.052;13.772;2022-09-12T12:26:59;100301.31;;;19.70;54.61
19114;BME280;9689;51.052;13.772;2022-09-12T12:32:18;100295.28;;;20.21;52.77
19114;BME280;9689;51.052;13.772;2022-09-12T12:37:51;100282.25;;;20.87;50.58
19114;BME280;9689;51.052;13.772;2022-09-12T12:48:18;100282.25;;;21.03;48.97
19114;BME280;9689;51.052;13.772;2022-09-12T12:53:22;100281.38;;;21.19;48.18
19114;BME280;9689;51.052;13.772;2022-09-12T12:58:32;100275.75;;;20.78;50.52
19114;BME280;9689;51.052;13.772;2022-09-12T13:03:35;100270.28;;;20.67;49.95
19114;BME280;9689;51.052;13.772;2022-09-12T13:08:38;100254.53;;;20.53;51.84
19114;BME280;9689;51.052;13.772;2022-09-12T13:13:48;100255.38;;;20.37;51.14
19114;BME280;9689;51.052;13.772;2022-09-12T13:18:50;100243.91;;;20.56;51.13
19114;BME280;9689;51.052;13.772;2022-09-12T13:23:59;100236.59;;;20.46;51.20
19114;BME280;9689;51.052;13.772;2022-09-12T13:29:14;100237.78;;;20.57;49.90
19114;BME280;9689;51.052;13.772;2022-09-12T13:34:18;100232.75;;;20.54;50.65
19114;BME280;9689;51.052;13.772;2022-09-12T13:39:23;100226.66;;;20.69;50.97
19114;BME280;9689;51.052;13.772;2022-09-12T13:44:27;100227.59;;;20.68;49.25
19114;BME280;9689;51.052;13.772;2022-09-12T13:49:31;100231.22;;;20.82;48.07
19114;BME280;9689;51.052;13.772;2022-09-12T13:54:34;100228.69;;;20.96;48.04
19114;BME280;9689;51.052;13.772;2022-09-12T13:59:39;100219.63;;;20.71;49.70
19114;BME280;9689;51.052;13.772;2022-09-12T14:04:41;100221.53;;;20.84;50.06
19114;BME280;9689;51.052;13.772;2022-09-12T14:10:05;100214.47;;;20.37;48.89
19114;BME280;9689;51.052;13.772;2022-09-12T14:15:15;100220.03;;;20.80;49.97
19114;BME280;9689;51.052;13.772;2022-09-12T14:20:17;100220.00;;;20.31;50.39
19114;BME280;9689;51.052;13.772;2022-09-12T14:25:21;100216.94;;;20.41;49.75
19114;BME280;9689;51.052;13.772;2022-09-12T14:30:26;100212.47;;;20.43;51.46
19114;BME280;9689;51.052;13.772;2022-09-12T14:35:29;100205.78;;;20.69;50.41
19114;BME280;9689;51.052;13.772;2022-09-12T14:40:30;100208.06;;;20.91;50.47
19114;BME280;9689;51.052;13.772;2022-09-12T14:45:33;100197.97;;;20.69;50.53
19114;BME280;9689;51.052;13.772;2022-09-12T14:50:34;100201.84;;;20.62;49.78
19114;BME280;9689;51.052;13.772;2022-09-12T14:55:42;100195.47;;;20.51;50.29
19114;BME280;9689;51.052;13.772;2022-09-12T15:00:57;100191.16;;;20.18;49.61
19114;BME280;9689;51.052;13.772;2022-09-12T15:05:59;100180.88;;;20.15;50.72
19114;BME280;9689;51.052;13.772;2022-09-12T15:11:01;100185.91;;;20.02;50.59
19114;BME280;9689;51.052;13.772;2022-09-12T15:16:03;100180.53;;;20.05;52.17
19114;BME280;9689;51.052;13.772;2022-09-12T15:21:05;100180.31;;;19.92;52.76
19114;BME280;9689;51.052;13.772;2022-09-12T15:26:09;100176.50;;;20.00;53.29
19114;BME280;9689;51.052;13.772;2022-09-12T15:31:18;100179.03;;;20.01;53.61
19114;BME280;9689;51.052;13.772;2022-09-12T15:36:29;100181.03;;;19.96;54.90
19114;BME280;9689;51.052;13.772;2022-09-12T15:41:31;100175.97;;;19.93;55.41
19114;BME280;9689;51.052;13.772;2022-09-12T15:46:35;100177.59;;;19.78;55.50
19114;BME280;9689;51.052;13.772;2022-09-12T15:51:36;100173.19;;;19.62;56.47
19114;BME280;9689;51.052;13.772;2022-09-12T15:56:36;100168.44;;;19.53;57.21
19114;BME280;9689;51.052;13.772;2022-09-12T16:01:38;100173.63;;;19.37;58.03
19114;BME280;9689;51.052;13.772;2022-09-12T16:06:39;100175.22;;;19.22;58.39
19114;BME280;9689;51.052;13.772;2022-09-12T16:11:40;100178.59;;;19.06;58.01
19114;BME280;9689;51.052;13.772;2022-09-12T16:16:43;100172.03;;;18.97;59.30
19114;BME280;9689;51.052;13.772;2022-09-12T16:21:44;100155.72;;;18.76;60.98
19114;BME280;9689;51.052;13.772;2022-09-12T16:26:45;100157.22;;;18.63;62.32
19114;BME280;9689;51.052;13.772;2022-09-12T16:31:47;100155.41;;;18.45;62.73
19114;BME280;9689;51.052;13.772;2022-09-12T16:36:47;100151.34;;;18.40;63.74
19114;BME280;9689;51.052;13.772;2022-09-12T16:41:48;100147.47;;;18.29;63.48
19114;BME280;9689;51.052;13.772;2022-09-12T16:46:50;100138.88;;;18.10;64.34
19114;BME280;9689;51.052;13.772;2022-09-12T16:51:51;100138.53;;;17.97;64.41
19114;BME280;9689;51.052;13.772;2022-09-12T16:56:51;100129.63;;;17.83;65.13
19114;BME280;9689;51.052;13.772;2022-09-12T17:01:53;100136.47;;;17.65;66.06
19114;BME280;9689;51.052;13.772;2022-09-12T17:06:55;100125.31;;;17.63;66.13
19114;BME280;9689;51.052;13.772;2022-09-12T17:11:58;100124.16;;;17.49;67.14
19114;BME280;9689;51.052;13.772;2022-09-12T17:17:02;100124.56;;;17.40;68.37
19114;BME280;9689;51.052;13.772;2022-09-12T17:22:03;100118.59;;;17.17;68.81
19114;BME280;9689;51.052;13.772;2022-09-12T17:27:03;100118.28;;;17.04;69.52
19114;BME280;9689;51.052;13.772;2022-09-12T17:32:06;100123.88;;;16.93;70.55
19114;BME280;9689;51.052;13.772;2022-09-12T17:37:06;100121.78;;;16.81;71.03
19114;BME280;9689;51.052;13.772;2022-09-12T17:42:07;100120.34;;;16.74;72.13
19114;BME280;9689;51.052;13.772;2022-09-12T17:47:09;100118.25;;;16.61;73.67
19114;BME280;9689;51.052;13.772;2022-09-12T17:52:10;100116.13;;;16.49;74.33
19114;BME280;9689;51.052;13.772;2022-09-12T17:57:11;100113.63;;;16.47;74.81
19114;BME280;9689;51.052;13.772;2022-09-12T18:02:14;100126.09;;;16.37;75.13
19114;BME280;9689;51.052;13.772;2022-09-12T18:07:17;100121.81;;;16.36;75.21
19114;BME280;9689;51.052;13.772;2022-09-12T18:12:18;100132.34;;;16.31;75.07
19114;BME280;9689;51.052;13.772;2022-09-12T18:17:21;100124.94;;;16.22;75.54
19114;BME280;9689;51.052;13.772;2022-09-12T18:22:22;100127.00;;;16.12;75.62
19114;BME280;9689;51.052;13.772;2022-09-12T18:27:23;100122.00;;;16.08;76.23
19114;BME280;9689;51.052;13.772;2022-09-12T18:32:25;100121.28;;;16.04;77.09
19114;BME280;9689;51.052;13.772;2022-09-12T18:37:25;100128.59;;;15.93;77.80
19114;BME280;9689;51.052;13.772;2022-09-12T18:42:26;100127.88;;;15.87;78.38
19114;BME280;9689;51.052;13.772;2022-09-12T18:47:28;100125.97;;;15.69;79.42
19114;BME280;9689;51.052;13.772;2022-09-12T18:52:29;100120.13;;;15.63;80.76
19114;BME280;9689;51.052;13.772;2022-09-12T18:57:29;100126.84;;;15.44;81.78
19114;BME280;9689;51.052;13.772;2022-09-12T19:02:34;100134.13;;;15.32;82.96
19114;BME280;9689;51.052;13.772;2022-09-12T19:07:36;100125.69;;;15.27;83.46
19114;BME280;9689;51.052;13.772;2022-09-12T19:12:37;100119.25;;;15.14;84.14
19114;BME280;9689;51.052;13.772;2022-09-12T19:17:39;100119.44;;;15.07;84.86
19114;BME280;9689;51.052;13.772;2022-09-12T19:22:39;100115.56;;;14.94;85.04
19114;BME280;9689;51.052;13.772;2022-09-12T19:27:40;100114.03;;;14.88;85.44
19114;BME280;9689;51.052;13.772;2022-09-12T19:32:43;100117.06;;;14.74;86.34
19114;BME280;9689;51.052;13.772;2022-09-12T19:37:43;100116.19;;;14.74;87.01
19114;BME280;9689;51.052;13.772;2022-09-12T19:42:44;100112.84;;;14.70;86.08
19114;BME280;9689;51.052;13.772;2022-09-12T19:47:46;100114.22;;;14.53;86.81
19114;BME280;9689;51.052;13.772;2022-09-12T19:52:47;100104.84;;;14.51;87.06
19114;BME280;9689;51.052;13.772;2022-09-12T19:57:48;100102.59;;;14.40;87.50
19114;BME280;9689;51.052;13.772;2022-09-12T20:02:50;100096.03;;;14.30;88.06
19114;BME280;9689;51.052;13.772;2022-09-12T20:07:51;100095.19;;;14.27;88.22
19114;BME280;9689;51.052;13.772;2022-09-12T20:12:51;100096.34;;;14.19;89.18
19114;BME280;9689;51.052;13.772;2022-09-12T20:17:54;100104.38;;;14.08;89.05
19114;BME280;9689;51.052;13.772;2022-09-12T20:22:55;100097.59;;;14.05;90.31
19114;BME280;9689;51.052;13.772;2022-09-12T20:27:55;100098.53;;;14.03;90.61
19114;BME280;9689;51.052;13.772;2022-09-12T20:33:00;100102.19;;;13.95;90.90
19114;BME280;9689;51.052;13.772;2022-09-12T20:38:00;100098.09;;;13.88;91.93
19114;BME280;9689;51.052;13.772;2022-09-12T20:43:01;100093.03;;;13.83;92.30
19114;BME280;9689;51.052;13.772;2022-09-12T20:48:03;100085.59;;;13.72;93.53
19114;BME280;9689;51.052;13.772;2022-09-12T20:53:04;100082.13;;;13.73;93.80
19114;BME280;9689;51.052;13.772;2022-09-12T20:58:04;100080.63;;;13.66;93.92
19114;BME280;9689;51.052;13.772;2022-09-12T21:03:06;100078.94;;;13.65;94.28
19114;BME280;9689;51.052;13.772;2022-09-12T21:08:07;100081.69;;;13.59;95.28
19114;BME280;9689;51.052;13.772;2022-09-12T21:13:08;100075.69;;;13.58;95.42
19114;BME280;9689;51.052;13.772;2022-09-12T21:18:10;100074.22;;;13.48;95.49
19114;BME280;9689;51.052;13.772;2022-09-12T21:23:11;100069.16;;;13.43;96.19
19114;BME280;9689;51.052;13.772;2022-09-12T21:28:12;100065.06;;;13.36;96.96
19114;BME280;9689;51.052;13.772;2022-09-12T21:33:14;100065.06;;;13.36;97.37
19114;BME280;9689;51.052;13.772;2022-09-12T21:38:15;100066.03;;;13.32;97.08
19114;BME280;9689;51.052;13.772;2022-09-12T21:43:16;100057.50;;;13.30;97.26
19114;BME280;9689;51.052;13.772;2022-09-12T21:48:18;100062.53;;;13.35;97.76
19114;BME280;9689;51.052;13.772;2022-09-12T21:53:18;100053.44;;;13.21;97.94
19114;BME280;9689;51.052;13.772;2022-09-12T21:58:19;100047.44;;;13.21;98.21
19114;BME280;9689;51.052;13.772;2022-09-12T22:03:21;100046.69;;;13.17;97.19
19114;BME280;9689;51.052;13.772;2022-09-12T22:08:21;100044.91;;;13.19;97.69
19114;BME280;9689;51.052;13.772;2022-09-12T22:13:22;100035.47;;;13.18;97.11
19114;BME280;9689;51.052;13.772;2022-09-12T22:18:24;100035.66;;;13.10;96.63
19114;BME280;9689;51.052;13.772;2022-09-12T22:23:24;100023.75;;;13.06;97.49
19114;BME280;9689;51.052;13.772;2022-09-12T22:28:42;100015.34;;;12.98;97.34
19114;BME280;9689;51.052;13.772;2022-09-12T22:33:44;100019.75;;;12.94;97.21
19114;BME280;9689;51.052;13.772;2022-09-12T22:38:45;100013.91;;;12.87;96.75
19114;BME280;9689;51.052;13.772;2022-09-12T22:43:45;100014.88;;;12.83;97.39
19114;BME280;9689;51.052;13.772;2022-09-12T22:48:47;99999.00;;;12.66;97.79
19114;BME280;9689;51.052;13.772;2022-09-12T22:53:48;99987.81;;;12.67;98.29
19114;BME280;9689;51.052;13.772;2022-09-12T22:58:49;99982.63;;;12.68;98.13
19114;BME280;9689;51.052;13.772;2022-09-12T23:03:51;99971.56;;;12.64;97.82
19114;BME280;9689;51.052;13.772;2022-09-12T23:08:52;99971.78;;;12.55;97.51
19114;BME280;9689;51.052;13.772;2022-09-12T23:13:54;99967.47;;;12.57;97.67
19114;BME280;9689;51.052;13.772;2022-09-12T23:18:56;99970.88;;;12.56;97.26
19114;BME280;9689;51.052;13.772;2022-09-12T23:23:57;99967.72;;;12.46;96.98
19114;BME280;9689;51.052;13.772;2022-09-12T23:29:00;99968.41;;;12.53;96.71
19114;BME280;9689;51.052;13.772;2022-09-12T23:34:03;99957.72;;;12.34;97.18
19114;BME280;9689;51.052;13.772;2022-09-12T23:39:05;99966.25;;;12.36;97.29
19114;BME280;9689;51.052;13.772;2022-09-12T23:44:05;99965.47;;;12.32;97.85
19114;BME280;9689;51.052;13.772;2022-09-12T23:49:07;99943.25;;;12.28;97.15
19114;BME280;9689;51.052;13.772;2022-09-12T23:54:08;99943.44;;;12.22;97.93
19114;BME280;9689;51.052;13.772;2022-09-12T23:59:09;99936.78;;;12.12;97.26
